createdAt,value
2023-02-01T00:00:30.156Z,87
2023-02-01T00:01:32.949Z,87.4
2023-02-01T00:02:35.957Z,87.6
2023-02-01T00:03:39.850Z,87
2023-02-01T00:04:42.880Z,87.1
2023-02-01T00:05:46.612Z,87.3
2023-02-01T00:06:50.057Z,87.1
2023-02-01T00:07:53.199Z,86.5
2023-02-01T00:08:56.505Z,86.4
2023-02-01T00:10:00.333Z,86.5
2023-02-01T00:11:03.146Z,86.2
2023-02-01T00:12:06.870Z,86.2
2023-02-01T00:13:10.086Z,85.5
2023-02-01T00:14:13.350Z,85.7
2023-02-01T00:15:17.091Z,85.5
2023-02-01T00:16:20.961Z,85.4
2023-02-01T00:17:24.785Z,85.2
2023-02-01T00:18:27.623Z,85.2
2023-02-01T00:19:30.428Z,85.5
2023-02-01T00:20:34.847Z,85.4
2023-02-01T00:21:38.164Z,85.1
2023-02-01T00:22:41.004Z,85.2
2023-02-01T00:23:44.092Z,84.6
2023-02-01T00:24:46.946Z,84.7
2023-02-01T00:25:50.067Z,84.5
2023-02-01T00:26:53.873Z,84.7
2023-02-01T00:27:57.315Z,84.9
2023-02-01T00:29:00.019Z,85
2023-02-01T00:30:03.142Z,84.8
2023-02-01T00:31:07.056Z,84.8
2023-02-01T00:32:10.733Z,84.7
2023-02-01T00:33:14.199Z,84.2
2023-02-01T00:34:17.052Z,84.4
2023-02-01T00:35:21.176Z,84.3
2023-02-01T00:36:23.944Z,84.1
2023-02-01T00:37:26.895Z,83.8
2023-02-01T00:38:30.001Z,84
2023-02-01T00:39:33.592Z,83.7
2023-02-01T00:40:36.687Z,83.8
2023-02-01T00:41:39.552Z,83.7
2023-02-01T00:42:42.637Z,83.8
2023-02-01T00:43:45.379Z,84.6
2023-02-01T00:44:48.355Z,84
2023-02-01T00:45:50.885Z,84
2023-02-01T00:46:54.374Z,83.9
2023-02-01T00:47:57.392Z,84
2023-02-01T00:49:00.645Z,84.2
2023-02-01T00:50:03.966Z,84.3
2023-02-01T00:51:06.905Z,84.2
2023-02-01T00:52:09.986Z,84.1
2023-02-01T00:53:13.685Z,84.1
2023-02-01T00:54:17.128Z,84.2
2023-02-01T00:55:19.940Z,84.2
2023-02-01T00:56:22.935Z,84.2
2023-02-01T00:57:26.048Z,84.3
2023-02-01T00:58:29.411Z,84.2
2023-02-01T00:59:32.737Z,84.3
2023-02-01T01:00:36.320Z,84.6
2023-02-01T01:01:39.987Z,84.7
2023-02-01T01:02:43.173Z,84.5
2023-02-01T01:03:45.935Z,84.6
2023-02-01T01:04:49.020Z,84.6
2023-02-01T01:05:51.971Z,84.9
2023-02-01T01:06:55.625Z,84.9
2023-02-01T01:07:58.754Z,84.9
2023-02-01T01:09:02.501Z,85
2023-02-01T01:10:05.962Z,85.3
2023-02-01T01:11:09.160Z,85
2023-02-01T01:12:11.989Z,85.2
2023-02-01T01:13:15.072Z,84.9
2023-02-01T01:14:18.079Z,84.7
2023-02-01T01:15:20.806Z,85
2023-02-01T01:16:24.505Z,84.9
2023-02-01T01:17:28.084Z,84.6
2023-02-01T01:18:30.923Z,84.4
2023-02-01T01:19:34.290Z,84.5
2023-02-01T01:20:37.666Z,84.7
2023-02-01T01:21:40.508Z,84.6
2023-02-01T01:22:43.243Z,84.5
2023-02-01T01:23:46.684Z,84.3
2023-02-01T01:24:49.868Z,84.5
2023-02-01T01:25:52.970Z,84.3
2023-02-01T01:26:56.288Z,84.3
2023-02-01T01:27:59.278Z,84.1
2023-02-01T01:29:01.883Z,84.2
2023-02-01T01:30:04.138Z,84.2
2023-02-01T01:31:08.017Z,84.2
2023-02-01T01:32:11.091Z,84.5
2023-02-01T01:33:14.232Z,84.5
2023-02-01T01:34:16.979Z,84.5
2023-02-01T01:35:20.286Z,84.4
2023-02-01T01:36:23.782Z,84.7
2023-02-01T01:37:27.186Z,84.5
2023-02-01T01:38:31.009Z,84.5
2023-02-01T01:39:34.058Z,84.5
2023-02-01T01:40:37.524Z,84.3
2023-02-01T01:41:40.896Z,84.1
2023-02-01T01:42:44.582Z,84
2023-02-01T01:43:47.031Z,84.3
2023-02-01T01:44:50.124Z,84.2
2023-02-01T01:45:54.142Z,84
2023-02-01T01:46:56.600Z,84.2
2023-02-01T01:48:00.440Z,84.2
2023-02-01T01:49:03.867Z,84.6
2023-02-01T01:50:07.139Z,84.6
2023-02-01T01:51:09.951Z,84.8
2023-02-01T01:52:12.770Z,84.8
2023-02-01T01:53:15.652Z,84.5
2023-02-01T01:54:18.527Z,84.3
2023-02-01T01:55:22.009Z,84.5
2023-02-01T01:56:24.923Z,84.6
2023-02-01T01:57:27.722Z,84.6
2023-02-01T01:58:30.525Z,84.4
2023-02-01T01:59:32.694Z,84.5
2023-02-01T02:00:36.527Z,84.5
2023-02-01T02:01:39.854Z,84.5
2023-02-01T02:02:42.904Z,84.5
2023-02-01T02:03:46.000Z,84.5
2023-02-01T02:04:49.623Z,84.3
2023-02-01T02:05:52.913Z,84.5
2023-02-01T02:06:56.637Z,84.6
2023-02-01T02:08:00.022Z,84.6
2023-02-01T02:09:07.476Z,84.4
2023-02-01T02:10:10.664Z,84.3
2023-02-01T02:11:14.178Z,84.2
2023-02-01T02:12:17.622Z,84.4
2023-02-01T02:13:21.372Z,84.5
2023-02-01T02:14:24.507Z,84.3
2023-02-01T02:15:27.583Z,84.3
2023-02-01T02:16:30.909Z,84.5
2023-02-01T02:17:34.820Z,84.5
2023-02-01T02:18:38.558Z,84.6
2023-02-01T02:19:41.978Z,84.7
2023-02-01T02:20:45.052Z,84.7
2023-02-01T02:21:47.655Z,84.7
2023-02-01T02:22:50.218Z,84.8
2023-02-01T02:23:53.283Z,84.8
2023-02-01T02:24:56.400Z,84.8
2023-02-01T02:25:59.418Z,84.9
2023-02-01T02:27:02.503Z,84.7
2023-02-01T02:28:06.260Z,84.8
2023-02-01T02:29:09.624Z,84.7
2023-02-01T02:30:12.695Z,84.9
2023-02-01T02:31:16.932Z,84.9
2023-02-01T02:32:20.135Z,84.8
2023-02-01T02:33:22.577Z,84.8
2023-02-01T02:34:24.741Z,84.8
2023-02-01T02:35:27.716Z,85.1
2023-02-01T02:36:31.086Z,85
2023-02-01T02:37:34.812Z,85.3
2023-02-01T02:38:37.048Z,85.3
2023-02-01T02:39:40.045Z,85.2
2023-02-01T02:40:43.740Z,85.2
2023-02-01T02:41:46.568Z,85.2
2023-02-01T02:42:49.974Z,85.2
2023-02-01T02:43:53.195Z,85.2
2023-02-01T02:44:56.680Z,85.2
2023-02-01T02:46:00.648Z,85.2
2023-02-01T02:47:04.536Z,85.4
2023-02-01T02:48:07.823Z,85.3
2023-02-01T02:49:10.918Z,85.3
2023-02-01T02:50:14.274Z,85.3
2023-02-01T02:51:17.658Z,85.3
2023-02-01T02:52:20.437Z,85.3
2023-02-01T02:53:23.153Z,85.3
2023-02-01T02:54:26.530Z,85.7
2023-02-01T02:55:29.068Z,85.8
2023-02-01T02:56:32.481Z,85.9
2023-02-01T02:57:35.583Z,85.6
2023-02-01T02:58:38.715Z,85.6
2023-02-01T02:59:42.533Z,85.6
2023-02-01T03:00:46.344Z,85.5
2023-02-01T03:01:49.181Z,85.3
2023-02-01T03:02:52.392Z,85.4
2023-02-01T03:03:56.103Z,85.5
2023-02-01T03:04:58.985Z,85.2
2023-02-01T03:06:02.288Z,85.1
2023-02-01T03:07:05.657Z,85
2023-02-01T03:08:09.035Z,84.8
2023-02-01T03:09:12.200Z,84.9
2023-02-01T03:10:15.223Z,85.1
2023-02-01T03:11:18.045Z,84.8
2023-02-01T03:12:21.129Z,84.7
2023-02-01T03:13:23.921Z,84.6
2023-02-01T03:14:26.783Z,84.3
2023-02-01T03:15:30.026Z,84.3
2023-02-01T03:16:33.406Z,84.4
2023-02-01T03:17:37.234Z,84.1
2023-02-01T03:18:40.034Z,84.3
2023-02-01T03:19:43.356Z,84.1
2023-02-01T03:20:46.517Z,84
2023-02-01T03:21:49.964Z,83.9
2023-02-01T03:22:53.300Z,83.8
2023-02-01T03:23:56.481Z,84
2023-02-01T03:24:59.567Z,84.4
2023-02-01T03:26:02.452Z,84.2
2023-02-01T03:27:06.061Z,84.3
2023-02-01T03:28:09.093Z,84.1
2023-02-01T03:29:13.450Z,83.8
2023-02-01T03:30:16.970Z,83.9
2023-02-01T03:31:20.564Z,83.9
2023-02-01T03:32:23.752Z,83.3
2023-02-01T03:33:26.808Z,83.4
2023-02-01T03:34:29.611Z,83.3
2023-02-01T03:35:32.715Z,83.3
2023-02-01T03:36:35.421Z,83.5
2023-02-01T03:37:39.075Z,83.6
2023-02-01T03:38:42.174Z,83.4
2023-02-01T03:39:45.259Z,83.5
2023-02-01T03:40:48.309Z,83.4
2023-02-01T03:41:51.070Z,83.4
2023-02-01T03:42:54.243Z,83.7
2023-02-01T03:43:56.471Z,83.9
2023-02-01T03:44:58.997Z,83.6
2023-02-01T03:46:02.764Z,83.7
2023-02-01T03:47:06.612Z,83.9
2023-02-01T03:48:09.408Z,83.8
2023-02-01T03:49:12.117Z,83.8
2023-02-01T03:50:15.124Z,83.8
2023-02-01T03:51:18.568Z,83.8
2023-02-01T03:52:21.915Z,83.7
2023-02-01T03:53:25.309Z,83.5
2023-02-01T03:54:28.328Z,83.3
2023-02-01T03:55:31.688Z,83.4
2023-02-01T03:56:34.481Z,83.5
2023-02-01T03:57:37.583Z,83.5
2023-02-01T03:58:40.378Z,83.5
2023-02-01T03:59:43.489Z,83.6
2023-02-01T04:00:46.609Z,83.6
2023-02-01T04:01:49.658Z,83.7
2023-02-01T04:02:53.175Z,83.7
2023-02-01T04:03:56.669Z,83.5
2023-02-01T04:05:00.051Z,83.6
2023-02-01T04:06:03.238Z,83.3
2023-02-01T04:07:06.524Z,83.6
2023-02-01T04:08:09.644Z,83.7
2023-02-01T04:09:12.367Z,83.7
2023-02-01T04:10:16.956Z,83.4
2023-02-01T04:11:22.467Z,83.5
2023-02-01T04:12:25.745Z,83.5
2023-02-01T04:13:29.086Z,83.3
2023-02-01T04:14:32.167Z,83.5
2023-02-01T04:15:35.926Z,84.1
2023-02-01T04:16:39.995Z,83.6
2023-02-01T04:17:43.635Z,83.6
2023-02-01T04:18:47.374Z,83.5
2023-02-01T04:19:50.857Z,83.5
2023-02-01T04:20:53.286Z,83.9
2023-02-01T04:21:56.399Z,84.1
2023-02-01T04:22:59.725Z,84.3
2023-02-01T04:24:03.216Z,84.2
2023-02-01T04:25:06.969Z,84.6
2023-02-01T04:26:09.916Z,84.8
2023-02-01T04:27:13.697Z,85
2023-02-01T04:28:16.433Z,84.9
2023-02-01T04:29:20.157Z,85.2
2023-02-01T04:30:24.665Z,85.3
2023-02-01T04:31:29.492Z,85.4
2023-02-01T04:32:33.000Z,85.8
2023-02-01T04:33:36.526Z,86
2023-02-01T04:34:40.599Z,86.3
2023-02-01T04:35:43.509Z,86.8
2023-02-01T04:36:47.984Z,87.1
2023-02-01T04:37:50.981Z,87.3
2023-02-01T04:38:54.709Z,87.5
2023-02-01T04:39:58.153Z,87.6
2023-02-01T04:41:00.871Z,87.8
2023-02-01T04:42:03.961Z,88.2
2023-02-01T04:43:06.488Z,88.1
2023-02-01T04:44:08.999Z,88.2
2023-02-01T04:45:12.725Z,88.1
2023-02-01T04:46:15.962Z,88.1
2023-02-01T04:47:19.549Z,88.2
2023-02-01T04:48:26.077Z,88.7
2023-02-01T04:49:28.913Z,89.2
2023-02-01T04:50:31.576Z,89.6
2023-02-01T04:51:35.308Z,90
2023-02-01T04:52:38.326Z,90.4
2023-02-01T04:53:40.888Z,90.5
2023-02-01T04:54:44.274Z,91
2023-02-01T04:55:47.921Z,91.2
2023-02-01T04:56:50.727Z,91.7
2023-02-01T04:57:53.537Z,92.2
2023-02-01T04:58:56.605Z,92.7
2023-02-01T04:59:59.948Z,93.3
2023-02-01T05:01:02.581Z,93.4
2023-02-01T05:02:04.901Z,93.6
2023-02-01T05:03:08.290Z,93.8
2023-02-01T05:04:11.409Z,93.7
2023-02-01T05:05:15.134Z,93.9
2023-02-01T05:06:18.364Z,94.1
2023-02-01T05:07:21.743Z,94.4
2023-02-01T05:08:25.225Z,94.4
2023-02-01T05:09:28.319Z,94.5
2023-02-01T05:10:31.450Z,95.2
2023-02-01T05:11:34.171Z,95.2
2023-02-01T05:12:36.876Z,95.1
2023-02-01T05:13:40.243Z,94.8
2023-02-01T05:14:43.308Z,94.6
2023-02-01T05:15:46.288Z,95.2
2023-02-01T05:16:49.517Z,95.3
2023-02-01T05:17:52.498Z,95.5
2023-02-01T05:18:56.631Z,95.7
2023-02-01T05:19:59.938Z,95.6
2023-02-01T05:21:03.153Z,95.6
2023-02-01T05:22:06.568Z,95.8
2023-02-01T05:23:09.371Z,96.3
2023-02-01T05:24:12.821Z,96.4
2023-02-01T05:25:15.656Z,96.5
2023-02-01T05:26:18.996Z,96.5
2023-02-01T05:27:21.770Z,96.6
2023-02-01T05:28:25.270Z,96.7
2023-02-01T05:29:28.638Z,96.7
2023-02-01T05:30:31.889Z,96.8
2023-02-01T05:31:36.087Z,96.7
2023-02-01T05:32:40.037Z,96.9
2023-02-01T05:33:42.533Z,96.9
2023-02-01T05:34:45.664Z,96.9
2023-02-01T05:35:49.156Z,96.8
2023-02-01T05:36:52.589Z,96.8
2023-02-01T05:37:56.143Z,96.8
2023-02-01T05:38:59.868Z,96.8
2023-02-01T05:40:02.936Z,96.9
2023-02-01T05:41:05.984Z,96.8
2023-02-01T05:42:09.322Z,96.7
2023-02-01T05:43:12.409Z,96.7
2023-02-01T05:44:15.833Z,96.6
2023-02-01T05:45:18.556Z,96.8
2023-02-01T05:46:21.729Z,96.7
2023-02-01T05:47:24.888Z,96.8
2023-02-01T05:48:28.660Z,97.1
2023-02-01T05:49:31.664Z,97.4
2023-02-01T05:50:33.930Z,97.3
2023-02-01T05:51:37.612Z,97.2
2023-02-01T05:52:41.017Z,97.4
2023-02-01T05:53:45.082Z,97.3
2023-02-01T05:54:49.125Z,97.1
2023-02-01T05:55:52.627Z,97
2023-02-01T05:56:55.431Z,97.2
2023-02-01T05:57:58.400Z,96.8
2023-02-01T06:00:05.382Z,96.3
2023-02-01T06:01:08.817Z,96.6
2023-02-01T06:02:12.324Z,96.5
2023-02-01T06:03:15.042Z,96.4
2023-02-01T06:04:18.118Z,96.4
2023-02-01T06:05:21.586Z,96.5
2023-02-01T06:06:25.238Z,97
2023-02-01T06:07:30.732Z,96.8
2023-02-01T06:08:33.515Z,96.7
2023-02-01T06:09:37.212Z,96.4
2023-02-01T06:10:40.005Z,96.5
2023-02-01T06:11:43.359Z,96.5
2023-02-01T06:12:46.499Z,96.6
2023-02-01T06:13:49.374Z,96.3
2023-02-01T06:14:52.561Z,96.2
2023-02-01T06:15:55.350Z,96.3
2023-02-01T06:16:58.189Z,96.1
2023-02-01T06:18:01.752Z,96.2
2023-02-01T06:19:04.833Z,96.5
2023-02-01T06:20:07.761Z,96.4
2023-02-01T06:21:14.500Z,96.4
2023-02-01T06:22:18.177Z,96.4
2023-02-01T06:23:20.997Z,96.5
2023-02-01T06:24:24.111Z,96.6
2023-02-01T06:25:27.309Z,96.4
2023-02-01T06:26:31.172Z,96.3
2023-02-01T06:27:34.344Z,96.4
2023-02-01T06:28:37.631Z,96.4
2023-02-01T06:29:40.981Z,96.7
2023-02-01T06:30:43.668Z,96.8
2023-02-01T06:31:46.947Z,96.8
2023-02-01T06:32:50.154Z,96.9
2023-02-01T06:33:53.490Z,97
2023-02-01T06:34:57.556Z,97.3
2023-02-01T06:36:00.941Z,97.7
2023-02-01T06:37:03.758Z,97.8
2023-02-01T06:38:07.283Z,97.7
2023-02-01T06:39:10.312Z,97.8
2023-02-01T06:40:13.698Z,97.9
2023-02-01T06:41:17.107Z,98
2023-02-01T06:42:20.307Z,98.1
2023-02-01T06:43:22.881Z,98.3
2023-02-01T06:44:26.534Z,98.2
2023-02-01T06:45:29.347Z,98.4
2023-02-01T06:46:32.204Z,98.6
2023-02-01T06:47:35.626Z,98.9
2023-02-01T06:48:39.344Z,98.9
2023-02-01T06:49:42.454Z,99
2023-02-01T06:50:44.602Z,99
2023-02-01T06:51:47.411Z,99
2023-02-01T06:52:51.193Z,99
2023-02-01T06:53:54.575Z,99
2023-02-01T06:54:57.379Z,99.2
2023-02-01T06:56:01.129Z,98.9
2023-02-01T06:57:05.183Z,98.8
2023-02-01T06:58:08.262Z,98.9
2023-02-01T06:59:11.993Z,99
2023-02-01T07:00:15.124Z,98.9
2023-02-01T07:01:18.224Z,98.8
2023-02-01T07:02:21.852Z,98.9
2023-02-01T07:03:25.107Z,99
2023-02-01T07:04:27.997Z,98.9
2023-02-01T07:05:31.027Z,98.8
2023-02-01T07:06:34.695Z,98.9
2023-02-01T07:07:38.151Z,98.9
2023-02-01T07:08:41.511Z,98.9
2023-02-01T07:09:44.898Z,98.5
2023-02-01T07:10:48.211Z,98.4
2023-02-01T07:11:51.937Z,98.6
2023-02-01T07:12:55.383Z,98.7
2023-02-01T07:13:58.298Z,98.6
2023-02-01T07:15:01.596Z,98.5
2023-02-01T07:16:05.520Z,98.4
2023-02-01T07:17:08.914Z,98.4
2023-02-01T07:18:12.278Z,98.5
2023-02-01T07:19:14.436Z,97.9
2023-02-01T07:20:17.849Z,97.8
2023-02-01T07:21:21.322Z,97.9
2023-02-01T07:22:23.862Z,97.7
2023-02-01T07:23:27.273Z,97.9
2023-02-01T07:24:30.057Z,97.7
2023-02-01T07:25:33.246Z,97.8
2023-02-01T07:26:36.401Z,97.6
2023-02-01T07:27:39.647Z,97.5
2023-02-01T07:28:43.470Z,97.5
2023-02-01T07:29:46.901Z,97.6
2023-02-01T07:30:50.380Z,97.6
2023-02-01T07:31:53.647Z,97.4
2023-02-01T07:32:57.204Z,97.6
2023-02-01T07:34:01.055Z,97.6
2023-02-01T07:35:03.488Z,97.7
2023-02-01T07:36:06.840Z,97.7
2023-02-01T07:37:10.156Z,97.8
2023-02-01T07:38:12.663Z,97.8
2023-02-01T07:39:16.145Z,97.7
2023-02-01T07:40:19.305Z,97.7
2023-02-01T07:41:22.721Z,97.5
2023-02-01T07:42:25.668Z,97.8
2023-02-01T07:43:29.180Z,98
2023-02-01T07:44:33.416Z,97.8
2023-02-01T07:45:38.439Z,98
2023-02-01T07:46:42.041Z,98.3
2023-02-01T07:47:44.816Z,98.3
2023-02-01T07:48:48.208Z,98.3
2023-02-01T07:49:52.014Z,98.2
2023-02-01T07:50:55.462Z,97.8
2023-02-01T07:51:58.727Z,97.8
2023-02-01T07:53:00.704Z,97.7
2023-02-01T07:54:04.091Z,97.9
2023-02-01T07:55:07.300Z,98
2023-02-01T07:56:10.431Z,98
2023-02-01T07:57:12.885Z,97.9
2023-02-01T07:58:16.259Z,97.9
2023-02-01T07:59:19.573Z,98
2023-02-01T08:00:24.232Z,98.1
2023-02-01T08:01:29.416Z,97.8
2023-02-01T08:02:33.076Z,97.8
2023-02-01T08:03:36.376Z,97.8
2023-02-01T08:04:38.524Z,97.7
2023-02-01T08:05:41.594Z,97.9
2023-02-01T08:06:45.247Z,97.7
2023-02-01T08:07:48.402Z,97.8
2023-02-01T08:08:51.856Z,98.1
2023-02-01T08:09:54.984Z,98.1
2023-02-01T08:10:58.321Z,98
2023-02-01T08:12:01.119Z,97.9
2023-02-01T08:13:04.329Z,98
2023-02-01T08:14:07.520Z,98
2023-02-01T08:15:10.913Z,98.1
2023-02-01T08:16:14.566Z,98.1
2023-02-01T08:17:18.605Z,98
2023-02-01T08:18:21.391Z,97.9
2023-02-01T08:19:24.853Z,97.8
2023-02-01T08:20:28.298Z,97.9
2023-02-01T08:21:30.794Z,98.1
2023-02-01T08:22:33.983Z,98.1
2023-02-01T08:23:37.247Z,98.2
2023-02-01T08:24:40.771Z,98.1
2023-02-01T08:25:43.573Z,98.2
2023-02-01T08:26:47.396Z,98.4
2023-02-01T08:27:50.492Z,98.2
2023-02-01T08:28:54.284Z,97.8
2023-02-01T08:29:57.714Z,97.8
2023-02-01T08:31:01.191Z,97.8
2023-02-01T08:32:04.542Z,97.8
2023-02-01T08:33:08.074Z,97.7
2023-02-01T08:34:11.817Z,97.8
2023-02-01T08:35:15.211Z,97.8
2023-02-01T08:36:18.270Z,97.8
2023-02-01T08:37:21.890Z,97.8
2023-02-01T08:38:24.891Z,97.8
2023-02-01T08:39:28.266Z,97.8
2023-02-01T08:40:31.154Z,97.7
2023-02-01T08:41:34.746Z,97.7
2023-02-01T08:42:38.870Z,97.5
2023-02-01T08:43:42.528Z,97.5
2023-02-01T08:44:46.005Z,97.7
2023-02-01T08:45:49.790Z,97.6
2023-02-01T08:46:53.725Z,97.7
2023-02-01T08:47:57.619Z,97.6
2023-02-01T08:49:00.751Z,97.4
2023-02-01T08:50:03.592Z,97.5
2023-02-01T08:51:06.804Z,97.3
2023-02-01T08:52:17.460Z,97.5
2023-02-01T08:53:20.982Z,97.6
2023-02-01T08:54:24.085Z,97.6
2023-02-01T08:55:27.878Z,97.4
2023-02-01T08:56:31.328Z,97.3
2023-02-01T08:57:35.159Z,97.6
2023-02-01T08:58:38.557Z,97.7
2023-02-01T08:59:41.836Z,97.5
2023-02-01T09:00:45.236Z,97.5
2023-02-01T09:01:48.775Z,97.5
2023-02-01T09:02:52.160Z,97.7
2023-02-01T09:03:56.078Z,97.7
2023-02-01T09:05:00.590Z,98
2023-02-01T09:06:04.001Z,97.7
2023-02-01T09:07:08.034Z,97.2
2023-02-01T09:08:11.374Z,97.2
2023-02-01T09:09:14.160Z,97.4
2023-02-01T09:10:36.774Z,97.5
2023-02-01T09:11:42.965Z,97.2
2023-02-01T09:12:45.944Z,96.9
2023-02-01T09:13:49.673Z,97
2023-02-01T09:14:53.038Z,97.2
2023-02-01T09:15:57.183Z,97.2
2023-02-01T09:17:00.784Z,97.1
2023-02-01T09:18:04.029Z,97.1
2023-02-01T09:19:28.143Z,97
2023-02-01T09:20:31.469Z,97.3
2023-02-01T09:21:35.264Z,97
2023-02-01T09:22:39.314Z,97.4
2023-02-01T09:23:42.335Z,97.2
2023-02-01T09:24:45.795Z,97.1
2023-02-01T09:25:48.709Z,96.9
2023-02-01T09:26:52.052Z,96.9
2023-02-01T09:27:55.300Z,96.9
2023-02-01T09:28:58.473Z,96.9
2023-02-01T09:30:01.841Z,96.9
2023-02-01T09:31:05.798Z,96.8
2023-02-01T09:32:09.977Z,96.9
2023-02-01T09:33:13.301Z,96.8
2023-02-01T09:34:16.992Z,96.8
2023-02-01T09:35:20.068Z,96.7
2023-02-01T09:36:22.695Z,96.7
2023-02-01T09:37:26.073Z,97.2
2023-02-01T09:38:30.462Z,97.2
2023-02-01T09:39:35.671Z,97.2
2023-02-01T09:40:38.443Z,97.1
2023-02-01T09:41:42.503Z,97.2
2023-02-01T09:42:45.925Z,96.9
2023-02-01T09:43:48.638Z,96.7
2023-02-01T09:44:52.119Z,96.5
2023-02-01T09:45:55.594Z,96.2
2023-02-01T09:46:58.948Z,95.7
2023-02-01T09:48:01.965Z,95.7
2023-02-01T09:49:05.428Z,95.3
2023-02-01T09:50:08.942Z,94.8
2023-02-01T09:51:12.302Z,94.9
2023-02-01T09:52:15.521Z,94.8
2023-02-01T09:53:18.564Z,94.8
2023-02-01T09:54:21.973Z,94.3
2023-02-01T09:55:25.619Z,94.5
2023-02-01T09:56:28.436Z,94.2
2023-02-01T09:57:32.150Z,93.6
2023-02-01T09:58:35.561Z,92.7
2023-02-01T09:59:38.689Z,92
2023-02-01T10:00:41.792Z,91.9
2023-02-01T10:01:45.908Z,91.2
2023-02-01T10:02:50.171Z,91.8
2023-02-01T10:03:54.176Z,91.5
2023-02-01T10:04:57.647Z,90.9
2023-02-01T10:06:01.083Z,91.2
2023-02-01T10:07:04.625Z,90.9
2023-02-01T10:08:08.353Z,89.5
2023-02-01T10:09:11.701Z,89.7
2023-02-01T10:10:14.765Z,89.8
2023-02-01T10:11:18.144Z,90
2023-02-01T10:12:20.992Z,89
2023-02-01T10:13:24.255Z,87.6
2023-02-01T10:14:28.015Z,86.5
2023-02-01T10:15:31.225Z,86.7
2023-02-01T10:16:35.688Z,86.8
2023-02-01T10:17:39.064Z,86.8
2023-02-01T10:18:42.479Z,85.8
2023-02-01T10:19:46.238Z,84.8
2023-02-01T10:20:50.045Z,85.5
2023-02-01T10:21:53.039Z,85.2
2023-02-01T10:23:35.513Z,84.7
2023-02-01T10:24:39.238Z,85.3
2023-02-01T10:25:42.891Z,85.5
2023-02-01T10:26:46.355Z,85.1
2023-02-01T10:27:49.989Z,84.7
2023-02-01T10:28:53.373Z,84.4
2023-02-01T10:29:57.057Z,84
2023-02-01T10:31:01.308Z,84.2
2023-02-01T10:32:05.130Z,83.4
2023-02-01T10:33:08.051Z,81.6
2023-02-01T10:34:10.819Z,79.9
2023-02-01T10:35:13.931Z,79.7
2023-02-01T10:36:17.257Z,79.1
2023-02-01T10:37:20.730Z,79.5
2023-02-01T10:38:23.831Z,78.6
2023-02-01T10:39:27.189Z,77.9
2023-02-01T10:40:31.075Z,76.7
2023-02-01T10:41:34.438Z,77.7
2023-02-01T10:42:37.897Z,75.7
2023-02-01T10:43:41.315Z,76
2023-02-01T10:44:44.747Z,74.9
2023-02-01T10:45:48.124Z,74.6
2023-02-01T10:46:51.808Z,75.4
2023-02-01T10:47:55.298Z,75.7
2023-02-01T10:48:58.690Z,75.9
2023-02-01T10:50:02.083Z,74
2023-02-01T10:51:05.475Z,73.2
2023-02-01T10:52:08.535Z,73.3
2023-02-01T10:53:12.276Z,73.2
2023-02-01T10:54:16.372Z,72.8
2023-02-01T10:55:20.127Z,72.9
2023-02-01T10:56:23.183Z,73.2
2023-02-01T10:57:26.643Z,72.8
2023-02-01T10:58:29.786Z,73.4
2023-02-01T10:59:33.145Z,74.6
2023-02-01T11:00:35.885Z,73.9
2023-02-01T11:01:38.564Z,74.6
2023-02-01T11:02:42.242Z,75.5
2023-02-01T11:03:45.776Z,74.2
2023-02-01T11:04:48.842Z,74.4
2023-02-01T11:05:51.642Z,74.7
2023-02-01T11:06:54.928Z,75.7
2023-02-01T11:07:58.754Z,76.8
2023-02-01T11:09:02.599Z,76.2
2023-02-01T11:10:05.602Z,75.3
2023-02-01T11:11:08.769Z,76.3
2023-02-01T11:12:12.201Z,77.1
2023-02-01T11:13:15.373Z,77.2
2023-02-01T11:14:18.109Z,77.3
2023-02-01T11:15:22.580Z,77.2
2023-02-01T11:16:26.527Z,78.2
2023-02-01T11:17:30.020Z,78.4
2023-02-01T11:18:33.750Z,78.5
2023-02-01T11:19:36.498Z,78.5
2023-02-01T11:20:39.792Z,79
2023-02-01T11:21:42.926Z,79.8
2023-02-01T11:22:46.344Z,79.3
2023-02-01T11:23:49.583Z,79
2023-02-01T11:24:53.043Z,79.6
2023-02-01T11:25:56.482Z,80.5
2023-02-01T11:27:01.221Z,81.5
2023-02-01T11:28:04.870Z,82.8
2023-02-01T11:29:08.168Z,83.4
2023-02-01T11:30:11.012Z,83.7
2023-02-01T11:31:15.371Z,84.2
2023-02-01T11:32:19.530Z,85.1
2023-02-01T11:33:23.319Z,85.3
2023-02-01T11:34:26.386Z,85.1
2023-02-01T11:35:29.624Z,85.7
2023-02-01T11:36:32.458Z,85.7
2023-02-01T11:37:36.069Z,85.7
2023-02-01T11:38:39.460Z,85.7
2023-02-01T11:39:42.263Z,85.2
2023-02-01T11:40:45.700Z,84.9
2023-02-01T11:41:49.318Z,85.2
2023-02-01T11:44:46.325Z,85.3
2023-02-01T11:45:50.332Z,85.2
2023-02-01T11:46:53.335Z,85.3
2023-02-01T11:47:56.020Z,85.6
2023-02-01T11:48:59.279Z,85.4
2023-02-01T11:50:02.090Z,85.2
2023-02-01T11:51:08.217Z,85.5
2023-02-01T11:52:11.986Z,85.6
2023-02-01T11:53:15.824Z,85.4
2023-02-01T11:54:18.648Z,85.6
2023-02-01T11:55:22.362Z,86
2023-02-01T11:56:26.109Z,85.5
2023-02-01T11:57:29.506Z,85.7
2023-02-01T11:58:33.257Z,86
2023-02-01T11:59:57.114Z,86.5
2023-02-01T12:01:00.958Z,86.5
2023-02-01T12:02:04.247Z,85.6
2023-02-01T12:03:07.507Z,83.9
2023-02-01T12:04:10.949Z,85.4
2023-02-01T12:05:14.477Z,85.2
2023-02-01T12:06:18.532Z,85.7
2023-02-01T12:07:21.984Z,86.4
2023-02-01T12:08:25.716Z,86.3
2023-02-01T12:09:28.798Z,86.6
2023-02-01T12:10:32.459Z,86.6
2023-02-01T12:11:36.245Z,86.7
2023-02-01T12:12:38.946Z,86.8
2023-02-01T12:13:41.680Z,86.2
2023-02-01T12:14:44.754Z,86.7
2023-02-01T12:15:47.787Z,87
2023-02-01T12:16:51.917Z,86.8
2023-02-01T12:17:54.663Z,86.9
2023-02-01T12:18:58.080Z,87.4
2023-02-01T12:20:01.449Z,87.4
2023-02-01T12:21:04.522Z,88
2023-02-01T12:22:08.291Z,88.4
2023-02-01T12:23:11.934Z,88.3
2023-02-01T12:24:14.676Z,88.2
2023-02-01T12:25:18.431Z,87.8
2023-02-01T12:26:22.019Z,87.5
2023-02-01T12:27:26.184Z,87.8
2023-02-01T12:28:29.814Z,87.9
2023-02-01T12:29:33.295Z,87.9
2023-02-01T12:30:36.193Z,88.5
2023-02-01T12:31:39.727Z,88.8
2023-02-01T12:32:43.596Z,89.1
2023-02-01T12:33:46.578Z,89.6
2023-02-01T12:34:49.293Z,90.3
2023-02-01T12:35:53.021Z,89.6
2023-02-01T12:36:56.294Z,89.5
2023-02-01T12:38:00.756Z,89.6
2023-02-01T12:39:04.095Z,90.7
2023-02-01T12:40:07.490Z,90.8
2023-02-01T12:41:10.355Z,90.7
2023-02-01T12:42:14.025Z,91
2023-02-01T12:43:17.303Z,90.8
2023-02-01T12:44:20.931Z,90.2
2023-02-01T12:45:23.784Z,90.1
2023-02-01T12:46:27.302Z,89.8
2023-02-01T12:47:30.329Z,90.4
2023-02-01T12:48:34.053Z,90.2
2023-02-01T12:49:37.410Z,90.4
2023-02-01T12:50:40.413Z,90.4
2023-02-01T12:51:44.107Z,90
2023-02-01T12:52:47.490Z,90.6
2023-02-01T12:53:50.997Z,90.8
2023-02-01T12:54:54.623Z,91.7
2023-02-01T12:55:57.929Z,91.9
2023-02-01T12:57:01.472Z,92.1
2023-02-01T12:58:04.235Z,92.6
2023-02-01T12:59:07.705Z,92.8
2023-02-01T13:00:10.849Z,93.1
2023-02-01T13:01:14.104Z,93.3
2023-02-01T13:02:17.548Z,93.5
2023-02-01T13:03:21.186Z,93.5
2023-02-01T13:04:24.695Z,93.6
2023-02-01T13:05:28.059Z,93.6
2023-02-01T13:06:31.439Z,93.9
2023-02-01T13:07:34.600Z,93.8
2023-02-01T13:08:38.338Z,93.7
2023-02-01T13:09:41.799Z,93.2
2023-02-01T13:10:45.154Z,93.1
2023-02-01T13:11:48.537Z,93.3
2023-02-01T13:12:51.739Z,93.2
2023-02-01T13:13:55.821Z,93.7
2023-02-01T13:14:59.350Z,93.5
2023-02-01T13:16:03.018Z,93.9
2023-02-01T13:17:06.417Z,94.1
2023-02-01T13:18:09.625Z,94.1
2023-02-01T13:19:12.680Z,94.3
2023-02-01T13:20:16.131Z,94
2023-02-01T13:21:19.133Z,94.6
2023-02-01T13:22:22.826Z,94.6
2023-02-01T13:23:26.844Z,94.5
2023-02-01T13:24:29.815Z,94.7
2023-02-01T13:25:33.631Z,94.8
2023-02-01T13:26:37.054Z,94.5
2023-02-01T13:27:40.690Z,94.8
2023-02-01T13:28:43.781Z,95
2023-02-01T13:29:47.177Z,95.1
2023-02-01T13:30:51.724Z,94.5
2023-02-01T13:31:56.757Z,95
2023-02-01T13:33:58.036Z,95.1
2023-02-01T13:35:02.491Z,95.2
2023-02-01T13:36:06.007Z,95.1
2023-02-01T13:37:09.191Z,95
2023-02-01T13:38:12.988Z,94.5
2023-02-01T13:39:16.670Z,94.8
2023-02-01T13:40:20.072Z,94.7
2023-02-01T13:41:23.568Z,95.1
2023-02-01T13:42:27.242Z,94.7
2023-02-01T13:43:30.352Z,95
2023-02-01T13:44:34.176Z,95.9
2023-02-01T13:45:37.662Z,96.4
2023-02-01T13:46:41.252Z,96.7
2023-02-01T13:47:44.306Z,96.6
2023-02-01T13:48:47.681Z,96.8
2023-02-01T13:49:50.948Z,96.6
2023-02-01T13:50:53.690Z,96.4
2023-02-01T13:51:57.083Z,96
2023-02-01T13:52:59.346Z,96.1
2023-02-01T13:54:03.147Z,96.2
2023-02-01T13:55:06.312Z,96.4
2023-02-01T13:56:09.688Z,96.4
2023-02-01T13:57:12.699Z,95.3
2023-02-01T13:58:15.414Z,95.6
2023-02-01T13:59:19.052Z,94.1
2023-02-01T14:00:21.877Z,94
2023-02-01T14:01:26.223Z,94.7
2023-02-01T14:02:30.340Z,94.8
2023-02-01T14:03:34.339Z,94.9
2023-02-01T14:04:38.034Z,94.9
2023-02-01T14:05:41.552Z,94.2
2023-02-01T14:06:45.265Z,93.8
2023-02-01T14:07:48.381Z,94.1
2023-02-01T14:08:51.641Z,94.1
2023-02-01T14:09:55.251Z,94.4
2023-02-01T14:10:58.975Z,94.7
2023-02-01T14:12:03.016Z,95
2023-02-01T14:13:06.413Z,95.3